Time;durP1;ratioP1;P1;durP2;ratioP2;P2;SDS_P1;SDS_P2;PMS_P1;PMS_P2;Temp;Humidity;BMP_temperature;BMP_pressure;BME280_temperature;BME280_humidity;BME280_pressure;Samples;Min_cycle;Max_cycle;Signal;HPM_P1;HPM_P2
2022/08/27 00:08:24;;;;;;;13.90;4.37;;;;;;;24.09;27.22;99614.09;31435938;28;20057;-71
2022/08/27 00:23:26;;;;;;;;;;;;;;;23.93;27.24;99617.84;31430575;28;20054;-71
2022/08/27 00:38:28;;;;;;;15.57;3.65;;;;;;;23.86;27.37;99612.88;31412485;28;20023;-70
2022/08/27 00:53:32;;;;;;;;;;;;;;;23.77;27.54;99610.47;31421132;28;20414;-70
2022/08/27 01:08:38;;;;;;;10.60;3.40;;;;;;;23.70;27.71;99606.25;31422184;28;20313;-70
2022/08/27 01:23:58;;;;;;;7.65;2.95;;;;;;;23.57;28.24;99608.19;31429374;28;20522;-70
2022/08/27 01:39:00;;;;;;;16.80;3.85;;;;;;;23.47;28.85;99604.97;31423950;28;20049;-71
2022/08/27 01:54:02;;;;;;;17.17;4.00;;;;;;;23.39;29.16;99621.41;31441440;28;20055;-70
2022/08/27 02:09:04;;;;;;;17.70;4.27;;;;;;;23.37;29.45;99612.88;31432385;28;20053;-71
2022/08/27 02:24:07;;;;;;;17.67;3.60;;;;;;;23.28;29.68;99623.53;31435715;28;20041;-70
2022/08/27 02:39:09;;;;;;;25.37;3.77;;;;;;;23.15;30.14;99610.28;31429084;28;20051;-71
2022/08/27 02:54:11;;;;;;;21.47;4.07;;;;;;;23.05;30.73;99620.22;31423128;28;20127;-70
2022/08/27 03:09:13;;;;;;;21.93;4.20;;;;;;;22.99;30.81;99638.88;31423495;28;20179;-70
2022/08/27 03:24:16;;;;;;;19.30;3.67;;;;;;;23.00;30.57;99648.69;31419905;28;20056;-70
2022/08/27 03:39:21;;;;;;;16.08;3.45;;;;;;;23.03;31.15;99655.97;31429500;28;20555;-69
2022/08/27 03:54:23;;;;;;;12.43;3.17;;;;;;;23.02;31.28;99654.44;31422591;28;20064;-71
2022/08/27 04:09:26;;;;;;;12.77;2.73;;;;;;;23.17;31.04;99643.75;31424030;28;20048;-71
2022/08/27 04:24:30;;;;;;;;;;;;;;;23.49;31.32;99646.75;31424277;28;20044;-71
2022/08/27 04:39:32;;;;;;;15.77;2.70;;;;;;;23.89;30.49;99641.56;31441983;28;20363;-71
2022/08/27 04:54:34;;;;;;;12.33;2.50;;;;;;;24.25;30.47;99642.94;31445314;28;20513;-70
2022/08/27 05:09:36;;;;;;;;;;;;;;;24.68;29.61;99634.53;31429598;28;20124;-70
2022/08/27 05:24:38;;;;;;;11.23;2.55;;;;;;;25.24;29.75;99633.69;31436948;28;20031;-71
2022/08/27 05:39:40;;;;;;;13.00;4.17;;;;;;;25.83;29.21;99639.94;31437865;28;20403;-71
2022/08/27 05:54:43;;;;;;;12.68;2.95;;;;;;;26.47;28.86;99651.53;31449918;28;20127;-72
2022/08/27 06:09:45;;;;;;;6.47;2.10;;;;;;;26.99;28.30;99680.53;31428349;28;20132;-73
2022/08/27 06:24:47;;;;;;;6.07;2.22;;;;;;;27.74;27.10;99671.31;31447358;28;20135;-70
2022/08/27 06:39:50;;;;;;;5.20;1.73;;;;;;;28.10;27.00;99671.34;31422367;28;20052;-72
2022/08/27 06:54:52;;;;;;;17.30;2.60;;;;;;;28.97;25.50;99664.22;31446668;28;20052;-72
2022/08/27 07:09:55;;;;;;;7.38;3.17;;;;;;;29.18;25.90;99645.25;31416367;28;20097;-73
2022/08/27 07:24:58;;;;;;;8.25;2.65;;;;;;;29.72;25.33;99648.75;31414073;28;20051;-73
2022/08/27 07:40:00;;;;;;;12.02;2.75;;;;;;;30.01;25.39;99633.22;31423611;28;20058;-72
2022/08/27 07:55:02;;;;;;;6.88;1.98;;;;;;;30.25;24.65;99629.00;31431796;28;20055;-72
2022/08/27 08:10:10;;;;;;;8.73;2.35;;;;;;;30.94;25.07;99631.44;31411902;28;20062;-73
2022/08/27 08:25:12;;;;;;;7.47;2.13;;;;;;;31.62;24.45;99644.16;31419027;28;20057;-74
2022/08/27 08:40:39;;;;;;;8.95;3.22;;;;;;;31.98;24.65;99635.91;31403916;28;20405;-73
2022/08/27 08:55:46;;;;;;;11.65;3.10;;;;;;;32.37;23.99;99641.81;31420631;28;20131;-75
2022/08/27 09:11:02;;;;;;;14.02;2.70;;;;;;;32.65;24.61;99638.44;31435919;28;20136;-72
2022/08/27 09:26:16;;;;;;;9.48;2.33;;;;;;;34.05;23.00;99660.31;31467376;28;20507;-74
2022/08/27 09:41:25;;;;;;;11.10;2.83;;;;;;;33.02;23.70;99655.38;31431686;28;20136;-73
2022/08/27 09:56:31;;;;;;;12.60;2.87;;;;;;;33.42;24.31;99660.53;31469242;28;20048;-72
2022/08/27 10:11:40;;;;;;;10.25;3.20;;;;;;;32.39;25.52;99667.25;31428139;28;20144;-74
2022/08/27 10:27:00;;;;;;;18.37;3.10;;;;;;;33.71;24.18;99675.41;31439850;28;20095;-75
2022/08/27 10:42:28;;;;;;;15.77;3.70;;;;;;;34.01;23.70;99668.47;31425192;28;20135;-76
2022/08/27 10:58:02;;;;;;;9.85;2.58;;;;;;;34.19;22.88;99675.44;31434033;28;20128;-74
2022/08/27 11:13:09;;;;;;;16.75;3.55;;;;;;;32.55;24.99;99688.22;31416051;28;20057;-74
2022/08/27 11:28:12;;;;;;;14.40;3.20;;;;;;;31.65;26.37;99690.69;31454128;28;20156;-74
2022/08/27 11:43:20;;;;;;;13.52;4.97;;;;;;;31.56;26.46;99682.91;31451698;28;20497;-75
2022/08/27 11:58:30;;;;;;;11.27;3.83;;;;;;;31.63;27.69;99691.28;31461925;28;20051;-75
2022/08/27 12:13:42;;;;;;;11.77;3.47;;;;;;;31.82;27.36;99690.75;31457304;28;20079;-75
2022/08/27 12:28:44;;;;;;;10.90;3.00;;;;;;;31.41;28.08;99678.94;31446372;28;20136;-74
2022/08/27 12:43:46;;;;;;;14.27;2.90;;;;;;;31.46;28.26;99677.94;31483083;28;20080;-74
2022/08/27 12:59:13;;;;;;;9.13;2.60;;;;;;;30.99;29.30;99658.47;31417751;28;20055;-73
2022/08/27 13:14:18;;;;;;;9.18;3.00;;;;;;;30.85;30.30;99650.38;31484714;28;20143;-74
2022/08/27 13:29:21;;;;;;;13.68;2.53;;;;;;;30.69;30.02;99677.00;31426644;28;20136;-75
2022/08/27 13:44:35;;;;;;;19.08;4.68;;;;;;;30.70;31.18;99672.88;31456030;28;20174;-74
2022/08/27 13:59:39;;;;;;;16.67;4.45;;;;;;;30.55;33.87;99661.72;31427334;28;20052;-75
2022/08/27 14:14:53;;;;;;;18.58;4.57;;;;;;;30.34;34.04;99652.88;31437246;28;20053;-73
2022/08/27 14:29:55;;;;;;;25.30;5.38;;;;;;;30.16;35.00;99649.97;31423836;28;20052;-74
2022/08/27 14:44:57;;;;;;;26.10;5.70;;;;;;;30.03;35.11;99647.38;31444827;28;20052;-73
2022/08/27 15:00:01;;;;;;;17.23;5.57;;;;;;;29.95;35.40;99646.66;31450813;28;20439;-72
2022/08/27 15:15:06;;;;;;;25.95;5.85;;;;;;;29.47;36.97;99643.03;31455361;28;20059;-74
2022/08/27 15:30:11;;;;;;;14.77;5.45;;;;;;;29.30;38.09;99623.97;31446104;28;20052;-73
2022/08/27 15:45:14;;;;;;;18.65;6.28;;;;;;;29.31;36.35;99645.03;31450552;28;20401;-72
2022/08/27 16:00:16;;;;;;;17.60;5.60;;;;;;;29.23;37.10;99624.75;31435116;28;20133;-73
2022/08/27 16:15:18;;;;;;;9.32;3.92;;;;;;;29.15;37.20;99652.69;31467605;28;20063;-73
2022/08/27 16:30:22;;;;;;;14.57;3.67;;;;;;;28.95;37.40;99650.81;31506117;28;20052;-72
2022/08/27 16:45:25;;;;;;;11.48;3.33;;;;;;;28.84;37.58;99679.84;31507149;28;20130;-73
2022/08/27 17:00:28;;;;;;;12.73;3.33;;;;;;;28.63;38.74;99682.00;31445753;28;20106;-71
2022/08/27 17:15:31;;;;;;;15.02;5.00;;;;;;;28.40;39.37;99697.91;31478915;28;20060;-72
2022/08/27 17:30:33;;;;;;;20.70;5.38;;;;;;;28.24;39.76;99701.94;31462772;28;20049;-74
2022/08/27 17:45:35;;;;;;;16.90;4.82;;;;;;;28.04;40.34;99690.28;31440340;28;20063;-72
2022/08/27 18:00:38;;;;;;;9.05;3.65;;;;;;;27.80;41.69;99704.63;31438482;28;20139;-72
2022/08/27 18:15:41;;;;;;;12.05;3.58;;;;;;;27.72;41.60;99737.28;31436208;28;20064;-72
2022/08/27 18:30:44;;;;;;;18.85;3.83;;;;;;;27.56;43.62;99730.81;31439754;28;20056;-72
2022/08/27 18:45:46;;;;;;;15.88;3.70;;;;;;;27.40;44.36;99748.72;31446202;28;20062;-72
2022/08/27 19:00:52;;;;;;;15.18;4.00;;;;;;;27.14;45.39;99747.53;31419969;28;20047;-73
2022/08/27 19:16:01;;;;;;;13.23;3.83;;;;;;;26.91;46.52;99740.97;31410427;28;20060;-74
2022/08/27 19:31:04;;;;;;;15.52;3.85;;;;;;;26.83;46.76;99757.56;31418052;28;20052;-72
2022/08/27 19:46:06;;;;;;;18.27;4.43;;;;;;;26.79;46.81;99757.16;31420723;28;20189;-73
2022/08/27 20:01:08;;;;;;;12.07;4.18;;;;;;;26.61;47.17;99762.84;31414600;28;20050;-74
2022/08/27 20:16:11;;;;;;;16.58;4.68;;;;;;;26.54;47.72;99764.25;31416074;28;20052;-73
2022/08/27 20:31:14;;;;;;;13.35;4.70;;;;;;;26.50;48.56;99758.25;31437778;28;20053;-73
2022/08/27 20:46:21;;;;;;;17.35;3.83;;;;;;;26.28;50.44;99750.31;31420922;28;20113;-73
2022/08/27 21:01:23;;;;;;;13.85;3.40;;;;;;;26.22;48.96;99749.72;31438310;28;20509;-73
2022/08/27 21:16:25;;;;;;;19.38;4.82;;;;;;;26.09;49.76;99753.97;31439842;28;20056;-75
2022/08/27 21:31:27;;;;;;;13.13;3.72;;;;;;;26.01;49.80;99747.53;31431318;28;20049;-73
2022/08/27 21:46:30;;;;;;;15.60;3.58;;;;;;;25.83;50.47;99737.25;31439840;28;20564;-72
2022/08/27 22:01:34;;;;;;;20.50;4.30;;;;;;;25.71;49.83;99730.41;31450753;28;20089;-71
2022/08/27 22:16:36;;;;;;;17.20;3.63;;;;;;;25.49;50.04;99743.38;31440521;28;20509;-73
2022/08/27 22:31:39;;;;;;;26.58;3.70;;;;;;;25.25;50.68;99740.72;31433646;28;20072;-71
2022/08/27 22:46:41;;;;;;;24.27;3.67;;;;;;;25.11;51.14;99753.03;31428846;28;20465;-72
2022/08/27 23:01:43;;;;;;;9.50;2.83;;;;;;;25.01;51.82;99743.63;31418986;28;20055;-72
2022/08/27 23:16:46;;;;;;;15.43;2.90;;;;;;;24.90;51.11;99750.03;31428897;28;20056;-73
2022/08/27 23:31:49;;;;;;;10.30;2.35;;;;;;;24.81;50.67;99762.25;31442261;28;20302;-71
2022/08/27 23:46:52;;;;;;;19.50;2.70;;;;;;;24.69;50.80;99752.59;31435509;28;20474;-72
